sensor_id;sensor_type;location;lat;lon;timestamp;P1;durP1;ratioP1;P2;durP2;ratioP2
15096;SDS011;7649;52.084;7.478;2023-05-07T00:01:13;8.10;;;7.25;;
15096;SDS011;7649;52.084;7.478;2023-05-07T00:03:44;8.40;;;7.68;;
15096;SDS011;7649;52.084;7.478;2023-05-07T00:06:12;8.02;;;7.32;;
15096;SDS011;7649;52.084;7.478;2023-05-07T00:08:42;8.57;;;7.77;;
15096;SDS011;7649;52.084;7.478;2023-05-07T00:11:11;8.30;;;7.50;;
15096;SDS011;7649;52.084;7.478;2023-05-07T00:13:39;7.90;;;7.20;;
15096;SDS011;7649;52.084;7.478;2023-05-07T00:16:07;8.50;;;7.72;;
15096;SDS011;7649;52.084;7.478;2023-05-07T00:18:35;7.70;;;7.10;;
15096;SDS011;7649;52.084;7.478;2023-05-07T00:21:04;7.30;;;6.53;;
15096;SDS011;7649;52.084;7.478;2023-05-07T00:23:32;8.23;;;7.43;;
15096;SDS011;7649;52.084;7.478;2023-05-07T00:26:01;7.97;;;7.22;;
15096;SDS011;7649;52.084;7.478;2023-05-07T00:28:30;8.30;;;7.60;;
15096;SDS011;7649;52.084;7.478;2023-05-07T00:30:58;8.00;;;7.30;;
15096;SDS011;7649;52.084;7.478;2023-05-07T00:33:26;8.70;;;7.90;;
15096;SDS011;7649;52.084;7.478;2023-05-07T00:35:54;8.48;;;7.68;;
15096;SDS011;7649;52.084;7.478;2023-05-07T00:38:23;8.40;;;7.70;;
15096;SDS011;7649;52.084;7.478;2023-05-07T00:40:51;9.25;;;8.35;;
15096;SDS011;7649;52.084;7.478;2023-05-07T00:43:21;8.63;;;7.80;;
15096;SDS011;7649;52.084;7.478;2023-05-07T00:45:49;9.57;;;8.20;;
15096;SDS011;7649;52.084;7.478;2023-05-07T00:48:17;9.52;;;8.43;;
15096;SDS011;7649;52.084;7.478;2023-05-07T00:50:46;8.90;;;8.20;;
15096;SDS011;7649;52.084;7.478;2023-05-07T00:53:14;8.90;;;8.10;;
15096;SDS011;7649;52.084;7.478;2023-05-07T00:55:42;8.50;;;7.65;;
15096;SDS011;7649;52.084;7.478;2023-05-07T00:58:11;8.98;;;8.15;;
15096;SDS011;7649;52.084;7.478;2023-05-07T01:00:40;9.57;;;8.27;;
15096;SDS011;7649;52.084;7.478;2023-05-07T01:03:08;9.30;;;8.50;;
15096;SDS011;7649;52.084;7.478;2023-05-07T01:05:37;9.30;;;8.50;;
15096;SDS011;7649;52.084;7.478;2023-05-07T01:08:06;9.55;;;8.52;;
15096;SDS011;7649;52.084;7.478;2023-05-07T01:10:34;10.20;;;9.30;;
15096;SDS011;7649;52.084;7.478;2023-05-07T01:13:03;9.00;;;8.13;;
15096;SDS011;7649;52.084;7.478;2023-05-07T01:15:31;9.82;;;8.82;;
15096;SDS011;7649;52.084;7.478;2023-05-07T01:18:01;10.30;;;9.30;;
15096;SDS011;7649;52.084;7.478;2023-05-07T01:20:29;10.37;;;9.37;;
15096;SDS011;7649;52.084;7.478;2023-05-07T01:22:59;12.83;;;9.53;;
15096;SDS011;7649;52.084;7.478;2023-05-07T01:25:28;10.83;;;9.83;;
15096;SDS011;7649;52.084;7.478;2023-05-07T01:27:56;10.87;;;9.83;;
15096;SDS011;7649;52.084;7.478;2023-05-07T01:30:26;11.33;;;10.23;;
15096;SDS011;7649;52.084;7.478;2023-05-07T01:32:56;11.50;;;10.30;;
15096;SDS011;7649;52.084;7.478;2023-05-07T01:35:26;10.33;;;9.33;;
15096;SDS011;7649;52.084;7.478;2023-05-07T01:37:55;11.33;;;9.47;;
15096;SDS011;7649;52.084;7.478;2023-05-07T01:40:25;12.40;;;11.20;;
15096;SDS011;7649;52.084;7.478;2023-05-07T01:42:54;11.73;;;10.67;;
15096;SDS011;7649;52.084;7.478;2023-05-07T01:45:22;10.90;;;9.90;;
15096;SDS011;7649;52.084;7.478;2023-05-07T01:47:50;12.63;;;11.37;;
15096;SDS011;7649;52.084;7.478;2023-05-07T01:50:19;12.00;;;11.00;;
15096;SDS011;7649;52.084;7.478;2023-05-07T01:52:49;12.90;;;11.60;;
15096;SDS011;7649;52.084;7.478;2023-05-07T01:55:18;11.63;;;10.53;;
15096;SDS011;7649;52.084;7.478;2023-05-07T01:57:48;11.87;;;10.77;;
15096;SDS011;7649;52.084;7.478;2023-05-07T02:00:16;14.93;;;11.70;;
15096;SDS011;7649;52.084;7.478;2023-05-07T02:02:45;12.40;;;11.20;;
15096;SDS011;7649;52.084;7.478;2023-05-07T02:05:13;12.63;;;11.30;;
15096;SDS011;7649;52.084;7.478;2023-05-07T02:07:41;12.93;;;11.60;;
15096;SDS011;7649;52.084;7.478;2023-05-07T02:10:09;13.80;;;12.43;;
15096;SDS011;7649;52.084;7.478;2023-05-07T02:12:38;13.87;;;12.43;;
15096;SDS011;7649;52.084;7.478;2023-05-07T02:15:08;13.87;;;12.37;;
15096;SDS011;7649;52.084;7.478;2023-05-07T02:17:38;13.90;;;12.60;;
15096;SDS011;7649;52.084;7.478;2023-05-07T02:20:07;14.77;;;13.33;;
15096;SDS011;7649;52.084;7.478;2023-05-07T02:22:39;15.30;;;13.57;;
15096;SDS011;7649;52.084;7.478;2023-05-07T02:25:07;15.63;;;14.13;;
15096;SDS011;7649;52.084;7.478;2023-05-07T02:27:36;16.77;;;14.90;;
15096;SDS011;7649;52.084;7.478;2023-05-07T02:30:04;16.63;;;14.93;;
15096;SDS011;7649;52.084;7.478;2023-05-07T02:32:34;16.13;;;14.53;;
15096;SDS011;7649;52.084;7.478;2023-05-07T02:35:03;16.90;;;15.20;;
15096;SDS011;7649;52.084;7.478;2023-05-07T02:37:31;17.47;;;15.83;;
15096;SDS011;7649;52.084;7.478;2023-05-07T02:39:59;16.53;;;14.93;;
15096;SDS011;7649;52.084;7.478;2023-05-07T02:42:29;18.10;;;16.20;;
15096;SDS011;7649;52.084;7.478;2023-05-07T02:44:57;16.90;;;15.17;;
15096;SDS011;7649;52.084;7.478;2023-05-07T02:47:26;18.93;;;16.93;;
15096;SDS011;7649;52.084;7.478;2023-05-07T02:49:56;18.93;;;17.13;;
15096;SDS011;7649;52.084;7.478;2023-05-07T02:52:24;17.80;;;15.90;;
15096;SDS011;7649;52.084;7.478;2023-05-07T02:54:52;18.60;;;16.80;;
15096;SDS011;7649;52.084;7.478;2023-05-07T02:57:21;17.83;;;16.07;;
15096;SDS011;7649;52.084;7.478;2023-05-07T02:59:49;18.27;;;16.57;;
15096;SDS011;7649;52.084;7.478;2023-05-07T03:02:18;18.30;;;16.60;;
15096;SDS011;7649;52.084;7.478;2023-05-07T03:04:46;18.70;;;16.83;;
15096;SDS011;7649;52.084;7.478;2023-05-07T03:07:16;17.70;;;15.90;;
15096;SDS011;7649;52.084;7.478;2023-05-07T03:09:44;20.30;;;17.20;;
15096;SDS011;7649;52.084;7.478;2023-05-07T03:12:12;19.37;;;17.37;;
15096;SDS011;7649;52.084;7.478;2023-05-07T03:14:40;18.77;;;16.97;;
15096;SDS011;7649;52.084;7.478;2023-05-07T03:17:09;18.77;;;16.97;;
15096;SDS011;7649;52.084;7.478;2023-05-07T03:19:37;17.37;;;15.67;;
15096;SDS011;7649;52.084;7.478;2023-05-07T03:22:05;17.83;;;16.03;;
15096;SDS011;7649;52.084;7.478;2023-05-07T03:24:35;18.47;;;16.67;;
15096;SDS011;7649;52.084;7.478;2023-05-07T03:27:03;18.90;;;17.10;;
15096;SDS011;7649;52.084;7.478;2023-05-07T03:29:31;17.80;;;16.20;;
15096;SDS011;7649;52.084;7.478;2023-05-07T03:31:59;18.83;;;17.03;;
15096;SDS011;7649;52.084;7.478;2023-05-07T03:34:28;19.07;;;17.27;;
15096;SDS011;7649;52.084;7.478;2023-05-07T03:36:56;19.40;;;16.87;;
15096;SDS011;7649;52.084;7.478;2023-05-07T03:39:24;18.67;;;16.77;;
15096;SDS011;7649;52.084;7.478;2023-05-07T03:41:54;17.27;;;15.57;;
15096;SDS011;7649;52.084;7.478;2023-05-07T03:44:22;21.83;;;17.97;;
15096;SDS011;7649;52.084;7.478;2023-05-07T03:46:50;19.67;;;17.67;;
15096;SDS011;7649;52.084;7.478;2023-05-07T03:49:19;18.13;;;16.40;;
15096;SDS011;7649;52.084;7.478;2023-05-07T03:51:47;18.97;;;17.13;;
15096;SDS011;7649;52.084;7.478;2023-05-07T03:54:15;18.10;;;16.33;;
15096;SDS011;7649;52.084;7.478;2023-05-07T03:56:43;18.20;;;16.40;;
15096;SDS011;7649;52.084;7.478;2023-05-07T03:59:13;18.93;;;17.10;;
15096;SDS011;7649;52.084;7.478;2023-05-07T04:01:41;18.07;;;16.27;;
15096;SDS011;7649;52.084;7.478;2023-05-07T04:04:09;19.43;;;17.53;;
15096;SDS011;7649;52.084;7.478;2023-05-07T04:06:37;17.80;;;16.00;;
15096;SDS011;7649;52.084;7.478;2023-05-07T04:09:06;18.07;;;16.27;;
15096;SDS011;7649;52.084;7.478;2023-05-07T04:11:34;18.53;;;16.67;;
15096;SDS011;7649;52.084;7.478;2023-05-07T04:14:03;18.77;;;16.97;;
15096;SDS011;7649;52.084;7.478;2023-05-07T04:16:32;18.37;;;16.27;;
15096;SDS011;7649;52.084;7.478;2023-05-07T04:19:02;18.97;;;17.17;;
15096;SDS011;7649;52.084;7.478;2023-05-07T04:21:30;18.07;;;16.30;;
15096;SDS011;7649;52.084;7.478;2023-05-07T04:23:58;18.33;;;16.57;;
15096;SDS011;7649;52.084;7.478;2023-05-07T04:26:27;18.73;;;16.73;;
15096;SDS011;7649;52.084;7.478;2023-05-07T04:28:55;18.83;;;16.90;;
15096;SDS011;7649;52.084;7.478;2023-05-07T04:31:23;24.00;;;16.90;;
15096;SDS011;7649;52.084;7.478;2023-05-07T04:33:53;18.47;;;16.63;;
15096;SDS011;7649;52.084;7.478;2023-05-07T04:36:21;18.50;;;16.60;;
15096;SDS011;7649;52.084;7.478;2023-05-07T04:38:53;18.57;;;16.53;;
15096;SDS011;7649;52.084;7.478;2023-05-07T04:41:21;19.03;;;17.03;;
15096;SDS011;7649;52.084;7.478;2023-05-07T04:43:50;18.10;;;16.37;;
15096;SDS011;7649;52.084;7.478;2023-05-07T04:46:18;18.20;;;16.43;;
15096;SDS011;7649;52.084;7.478;2023-05-07T04:48:47;18.70;;;16.87;;
15096;SDS011;7649;52.084;7.478;2023-05-07T04:51:16;18.90;;;17.10;;
15096;SDS011;7649;52.084;7.478;2023-05-07T04:53:44;19.00;;;17.10;;
15096;SDS011;7649;52.084;7.478;2023-05-07T04:56:12;18.83;;;17.03;;
15096;SDS011;7649;52.084;7.478;2023-05-07T04:58:41;19.00;;;17.00;;
15096;SDS011;7649;52.084;7.478;2023-05-07T05:01:09;18.67;;;16.67;;
15096;SDS011;7649;52.084;7.478;2023-05-07T05:03:37;19.23;;;17.33;;
15096;SDS011;7649;52.084;7.478;2023-05-07T05:06:07;18.03;;;16.23;;
15096;SDS011;7649;52.084;7.478;2023-05-07T05:08:36;19.47;;;17.40;;
15096;SDS011;7649;52.084;7.478;2023-05-07T05:11:04;18.40;;;16.50;;
15096;SDS011;7649;52.084;7.478;2023-05-07T05:13:33;18.10;;;16.30;;
15096;SDS011;7649;52.084;7.478;2023-05-07T05:16:01;19.03;;;17.17;;
15096;SDS011;7649;52.084;7.478;2023-05-07T05:18:29;18.30;;;16.40;;
15096;SDS011;7649;52.084;7.478;2023-05-07T05:20:57;18.23;;;16.33;;
15096;SDS011;7649;52.084;7.478;2023-05-07T05:23:26;18.10;;;16.20;;
15096;SDS011;7649;52.084;7.478;2023-05-07T05:25:57;18.07;;;16.13;;
15096;SDS011;7649;52.084;7.478;2023-05-07T05:28:25;19.03;;;17.03;;
15096;SDS011;7649;52.084;7.478;2023-05-07T05:30:54;18.37;;;16.53;;
15096;SDS011;7649;52.084;7.478;2023-05-07T05:33:22;19.17;;;17.27;;
15096;SDS011;7649;52.084;7.478;2023-05-07T05:35:51;18.93;;;17.00;;
15096;SDS011;7649;52.084;7.478;2023-05-07T05:38:19;18.00;;;16.17;;
15096;SDS011;7649;52.084;7.478;2023-05-07T05:40:47;18.27;;;16.47;;
15096;SDS011;7649;52.084;7.478;2023-05-07T05:43:17;18.47;;;16.70;;
15096;SDS011;7649;52.084;7.478;2023-05-07T05:45:45;20.70;;;17.97;;
15096;SDS011;7649;52.084;7.478;2023-05-07T05:48:14;18.40;;;16.60;;
15096;SDS011;7649;52.084;7.478;2023-05-07T05:50:42;19.43;;;17.53;;
15096;SDS011;7649;52.084;7.478;2023-05-07T05:53:10;19.50;;;17.57;;
15096;SDS011;7649;52.084;7.478;2023-05-07T05:55:38;18.43;;;16.40;;
15096;SDS011;7649;52.084;7.478;2023-05-07T05:58:07;18.17;;;16.37;;
15096;SDS011;7649;52.084;7.478;2023-05-07T06:00:36;18.03;;;16.23;;
15096;SDS011;7649;52.084;7.478;2023-05-07T06:03:05;19.97;;;17.97;;
15096;SDS011;7649;52.084;7.478;2023-05-07T06:05:33;18.97;;;17.00;;
15096;SDS011;7649;52.084;7.478;2023-05-07T06:08:01;19.27;;;17.47;;
15096;SDS011;7649;52.084;7.478;2023-05-07T06:10:30;19.23;;;17.43;;
15096;SDS011;7649;52.084;7.478;2023-05-07T06:12:58;20.00;;;17.60;;
15096;SDS011;7649;52.084;7.478;2023-05-07T06:15:26;20.43;;;18.30;;
15096;SDS011;7649;52.084;7.478;2023-05-07T06:17:56;19.23;;;17.23;;
15096;SDS011;7649;52.084;7.478;2023-05-07T06:20:24;19.53;;;17.43;;
15096;SDS011;7649;52.084;7.478;2023-05-07T06:22:52;18.60;;;16.60;;
15096;SDS011;7649;52.084;7.478;2023-05-07T06:25:21;18.77;;;16.87;;
15096;SDS011;7649;52.084;7.478;2023-05-07T06:27:49;19.17;;;17.30;;
15096;SDS011;7649;52.084;7.478;2023-05-07T06:30:17;19.13;;;17.27;;
15096;SDS011;7649;52.084;7.478;2023-05-07T06:32:46;18.50;;;16.67;;
15096;SDS011;7649;52.084;7.478;2023-05-07T06:35:15;18.70;;;16.90;;
15096;SDS011;7649;52.084;7.478;2023-05-07T06:37:44;20.30;;;17.60;;
15096;SDS011;7649;52.084;7.478;2023-05-07T06:40:12;20.57;;;18.50;;
15096;SDS011;7649;52.084;7.478;2023-05-07T06:42:41;20.80;;;17.50;;
15096;SDS011;7649;52.084;7.478;2023-05-07T06:45:10;18.80;;;16.90;;
15096;SDS011;7649;52.084;7.478;2023-05-07T06:47:40;19.00;;;17.00;;
15096;SDS011;7649;52.084;7.478;2023-05-07T06:50:08;18.23;;;16.47;;
15096;SDS011;7649;52.084;7.478;2023-05-07T06:52:38;19.27;;;17.27;;
15096;SDS011;7649;52.084;7.478;2023-05-07T06:55:07;18.80;;;16.90;;
15096;SDS011;7649;52.084;7.478;2023-05-07T06:57:35;18.90;;;17.03;;
15096;SDS011;7649;52.084;7.478;2023-05-07T07:00:04;18.57;;;16.87;;
15096;SDS011;7649;52.084;7.478;2023-05-07T07:02:36;17.90;;;16.10;;
15096;SDS011;7649;52.084;7.478;2023-05-07T07:05:05;18.37;;;16.47;;
15096;SDS011;7649;52.084;7.478;2023-05-07T07:07:33;19.03;;;16.73;;
15096;SDS011;7649;52.084;7.478;2023-05-07T07:10:03;18.63;;;16.73;;
15096;SDS011;7649;52.084;7.478;2023-05-07T07:12:31;17.60;;;15.90;;
15096;SDS011;7649;52.084;7.478;2023-05-07T07:15:03;19.10;;;17.10;;
15096;SDS011;7649;52.084;7.478;2023-05-07T07:17:32;18.70;;;16.80;;
15096;SDS011;7649;52.084;7.478;2023-05-07T07:20:00;17.80;;;16.07;;
15096;SDS011;7649;52.084;7.478;2023-05-07T07:22:29;18.70;;;16.90;;
15096;SDS011;7649;52.084;7.478;2023-05-07T07:24:57;18.57;;;16.60;;
15096;SDS011;7649;52.084;7.478;2023-05-07T07:27:31;19.17;;;17.17;;
15096;SDS011;7649;52.084;7.478;2023-05-07T07:30:00;18.13;;;16.43;;
15096;SDS011;7649;52.084;7.478;2023-05-07T07:32:29;18.00;;;16.00;;
15096;SDS011;7649;52.084;7.478;2023-05-07T07:34:58;18.10;;;16.30;;
15096;SDS011;7649;52.084;7.478;2023-05-07T07:37:27;18.87;;;16.93;;
15096;SDS011;7649;52.084;7.478;2023-05-07T07:39:56;19.13;;;17.13;;
15096;SDS011;7649;52.084;7.478;2023-05-07T07:42:24;18.40;;;16.60;;
15096;SDS011;7649;52.084;7.478;2023-05-07T07:44:54;18.50;;;16.67;;
15096;SDS011;7649;52.084;7.478;2023-05-07T07:47:23;18.73;;;16.80;;
15096;SDS011;7649;52.084;7.478;2023-05-07T07:49:51;17.97;;;16.13;;
15096;SDS011;7649;52.084;7.478;2023-05-07T07:52:20;18.37;;;16.50;;
15096;SDS011;7649;52.084;7.478;2023-05-07T07:54:49;18.07;;;16.23;;
15096;SDS011;7649;52.084;7.478;2023-05-07T07:57:18;18.30;;;16.17;;
15096;SDS011;7649;52.084;7.478;2023-05-07T07:59:46;18.03;;;16.27;;
15096;SDS011;7649;52.084;7.478;2023-05-07T08:02:16;17.40;;;15.70;;
15096;SDS011;7649;52.084;7.478;2023-05-07T08:04:45;18.43;;;16.63;;
15096;SDS011;7649;52.084;7.478;2023-05-07T08:07:13;17.47;;;15.70;;
15096;SDS011;7649;52.084;7.478;2023-05-07T08:09:44;17.80;;;16.00;;
15096;SDS011;7649;52.084;7.478;2023-05-07T08:12:13;18.20;;;16.50;;
15096;SDS011;7649;52.084;7.478;2023-05-07T08:14:41;18.30;;;16.40;;
15096;SDS011;7649;52.084;7.478;2023-05-07T08:17:09;18.17;;;16.23;;
15096;SDS011;7649;52.084;7.478;2023-05-07T08:19:39;18.30;;;16.30;;
15096;SDS011;7649;52.084;7.478;2023-05-07T08:22:08;18.23;;;16.27;;
15096;SDS011;7649;52.084;7.478;2023-05-07T08:24:37;17.40;;;15.70;;
15096;SDS011;7649;52.084;7.478;2023-05-07T08:27:05;17.87;;;16.07;;
15096;SDS011;7649;52.084;7.478;2023-05-07T08:29:33;19.20;;;17.17;;
15096;SDS011;7649;52.084;7.478;2023-05-07T08:32:02;18.17;;;16.37;;
15096;SDS011;7649;52.084;7.478;2023-05-07T08:34:30;17.50;;;15.70;;
15096;SDS011;7649;52.084;7.478;2023-05-07T08:37:00;18.50;;;16.70;;
15096;SDS011;7649;52.084;7.478;2023-05-07T08:39:29;18.73;;;16.83;;
15096;SDS011;7649;52.084;7.478;2023-05-07T08:41:59;18.13;;;16.27;;
15096;SDS011;7649;52.084;7.478;2023-05-07T08:44:28;18.10;;;16.30;;
15096;SDS011;7649;52.084;7.478;2023-05-07T08:47:00;18.70;;;16.83;;
15096;SDS011;7649;52.084;7.478;2023-05-07T08:49:29;18.07;;;16.27;;
15096;SDS011;7649;52.084;7.478;2023-05-07T08:51:57;17.70;;;16.00;;
15096;SDS011;7649;52.084;7.478;2023-05-07T08:54:27;18.37;;;16.13;;
15096;SDS011;7649;52.084;7.478;2023-05-07T08:56:57;17.93;;;16.03;;
15096;SDS011;7649;52.084;7.478;2023-05-07T08:59:26;17.57;;;15.87;;
15096;SDS011;7649;52.084;7.478;2023-05-07T09:01:54;16.70;;;14.90;;
15096;SDS011;7649;52.084;7.478;2023-05-07T09:04:22;17.67;;;15.97;;
15096;SDS011;7649;52.084;7.478;2023-05-07T09:06:51;17.90;;;16.10;;
15096;SDS011;7649;52.084;7.478;2023-05-07T09:09:19;17.20;;;15.43;;
15096;SDS011;7649;52.084;7.478;2023-05-07T09:11:56;17.93;;;16.13;;
15096;SDS011;7649;52.084;7.478;2023-05-07T09:14:25;22.33;;;16.00;;
15096;SDS011;7649;52.084;7.478;2023-05-07T09:16:54;16.93;;;15.13;;
15096;SDS011;7649;52.084;7.478;2023-05-07T09:19:22;16.67;;;14.97;;
15096;SDS011;7649;52.084;7.478;2023-05-07T09:21:57;16.20;;;14.63;;
15096;SDS011;7649;52.084;7.478;2023-05-07T09:24:26;18.40;;;15.73;;
15096;SDS011;7649;52.084;7.478;2023-05-07T09:27:05;16.83;;;15.15;;
15096;SDS011;7649;52.084;7.478;2023-05-07T09:29:39;17.30;;;15.60;;
15096;SDS011;7649;52.084;7.478;2023-05-07T09:32:08;17.33;;;15.63;;
15096;SDS011;7649;52.084;7.478;2023-05-07T09:34:40;17.25;;;15.65;;
15096;SDS011;7649;52.084;7.478;2023-05-07T09:37:17;17.20;;;15.50;;
15096;SDS011;7649;52.084;7.478;2023-05-07T09:39:46;16.33;;;14.73;;
15096;SDS011;7649;52.084;7.478;2023-05-07T09:42:23;17.23;;;14.68;;
15096;SDS011;7649;52.084;7.478;2023-05-07T09:44:52;15.40;;;13.90;;
15096;SDS011;7649;52.084;7.478;2023-05-07T09:47:23;16.75;;;14.95;;
15096;SDS011;7649;52.084;7.478;2023-05-07T09:49:54;15.55;;;14.05;;
15096;SDS011;7649;52.084;7.478;2023-05-07T09:52:23;15.30;;;13.60;;
15096;SDS011;7649;52.084;7.478;2023-05-07T09:54:55;16.55;;;14.95;;
15096;SDS011;7649;52.084;7.478;2023-05-07T09:57:27;15.27;;;13.88;;
15096;SDS011;7649;52.084;7.478;2023-05-07T09:59:56;15.55;;;14.10;;
15096;SDS011;7649;52.084;7.478;2023-05-07T10:02:26;15.82;;;13.98;;
15096;SDS011;7649;52.084;7.478;2023-05-07T10:04:57;14.20;;;13.00;;
15096;SDS011;7649;52.084;7.478;2023-05-07T10:07:26;15.90;;;14.20;;
15096;SDS011;7649;52.084;7.478;2023-05-07T10:09:55;15.23;;;13.77;;
15096;SDS011;7649;52.084;7.478;2023-05-07T10:12:23;16.58;;;13.45;;
15096;SDS011;7649;52.084;7.478;2023-05-07T10:14:53;15.05;;;13.60;;
15096;SDS011;7649;52.084;7.478;2023-05-07T10:17:22;14.00;;;12.65;;
15096;SDS011;7649;52.084;7.478;2023-05-07T10:19:51;13.35;;;12.05;;
15096;SDS011;7649;52.084;7.478;2023-05-07T10:22:21;13.05;;;11.95;;
15096;SDS011;7649;52.084;7.478;2023-05-07T10:24:50;13.00;;;11.80;;
15096;SDS011;7649;52.084;7.478;2023-05-07T10:27:21;15.05;;;13.45;;
15096;SDS011;7649;52.084;7.478;2023-05-07T10:29:58;14.43;;;12.93;;
15096;SDS011;7649;52.084;7.478;2023-05-07T10:32:35;13.70;;;12.30;;
15096;SDS011;7649;52.084;7.478;2023-05-07T10:35:06;13.10;;;11.70;;
15096;SDS011;7649;52.084;7.478;2023-05-07T10:37:36;13.43;;;12.13;;
15096;SDS011;7649;52.084;7.478;2023-05-07T10:40:05;12.48;;;11.35;;
15096;SDS011;7649;52.084;7.478;2023-05-07T10:42:34;12.52;;;11.32;;
15096;SDS011;7649;52.084;7.478;2023-05-07T10:45:12;12.98;;;11.77;;
15096;SDS011;7649;52.084;7.478;2023-05-07T10:50:38;13.10;;;11.90;;
15096;SDS011;7649;52.084;7.478;2023-05-07T10:53:22;13.13;;;11.95;;
15096;SDS011;7649;52.084;7.478;2023-05-07T10:58:38;13.05;;;11.85;;
15096;SDS011;7649;52.084;7.478;2023-05-07T11:01:06;13.85;;;12.55;;
15096;SDS011;7649;52.084;7.478;2023-05-07T11:03:36;14.18;;;12.68;;
15096;SDS011;7649;52.084;7.478;2023-05-07T11:06:26;14.68;;;11.75;;
15096;SDS011;7649;52.084;7.478;2023-05-07T11:08:54;13.38;;;12.13;;
15096;SDS011;7649;52.084;7.478;2023-05-07T11:11:44;12.52;;;11.43;;
15096;SDS011;7649;52.084;7.478;2023-05-07T11:14:13;12.52;;;11.32;;
15096;SDS011;7649;52.084;7.478;2023-05-07T11:16:42;11.75;;;10.65;;
15096;SDS011;7649;52.084;7.478;2023-05-07T11:19:11;12.63;;;11.45;;
15096;SDS011;7649;52.084;7.478;2023-05-07T11:21:41;11.98;;;10.93;;
15096;SDS011;7649;52.084;7.478;2023-05-07T11:24:10;12.15;;;10.95;;
15096;SDS011;7649;52.084;7.478;2023-05-07T11:26:42;11.18;;;10.10;;
15096;SDS011;7649;52.084;7.478;2023-05-07T11:29:14;12.15;;;10.93;;
15096;SDS011;7649;52.084;7.478;2023-05-07T11:31:48;12.55;;;11.43;;
15096;SDS011;7649;52.084;7.478;2023-05-07T11:34:20;13.05;;;10.30;;
15096;SDS011;7649;52.084;7.478;2023-05-07T11:36:50;11.82;;;10.65;;
15096;SDS011;7649;52.084;7.478;2023-05-07T11:39:25;12.13;;;10.85;;
15096;SDS011;7649;52.084;7.478;2023-05-07T11:41:54;13.45;;;12.20;;
15096;SDS011;7649;52.084;7.478;2023-05-07T11:44:22;13.25;;;11.95;;
15096;SDS011;7649;52.084;7.478;2023-05-07T11:46:50;11.25;;;10.35;;
15096;SDS011;7649;52.084;7.478;2023-05-07T11:49:19;11.05;;;10.15;;
15096;SDS011;7649;52.084;7.478;2023-05-07T11:51:48;11.35;;;10.35;;
15096;SDS011;7649;52.084;7.478;2023-05-07T11:54:17;10.63;;;9.68;;
15096;SDS011;7649;52.084;7.478;2023-05-07T11:56:47;10.73;;;9.77;;
15096;SDS011;7649;52.084;7.478;2023-05-07T11:59:18;11.40;;;10.20;;
15096;SDS011;7649;52.084;7.478;2023-05-07T12:01:46;11.43;;;10.43;;
15096;SDS011;7649;52.084;7.478;2023-05-07T12:04:19;11.18;;;10.27;;
15096;SDS011;7649;52.084;7.478;2023-05-07T12:06:53;12.02;;;10.85;;
15096;SDS011;7649;52.084;7.478;2023-05-07T12:09:23;11.43;;;10.43;;
15096;SDS011;7649;52.084;7.478;2023-05-07T12:11:52;10.02;;;9.23;;
15096;SDS011;7649;52.084;7.478;2023-05-07T12:14:26;10.57;;;9.48;;
15096;SDS011;7649;52.084;7.478;2023-05-07T12:16:56;9.85;;;9.05;;
15096;SDS011;7649;52.084;7.478;2023-05-07T12:19:25;10.68;;;9.55;;
15096;SDS011;7649;52.084;7.478;2023-05-07T12:21:53;10.05;;;9.07;;
15096;SDS011;7649;52.084;7.478;2023-05-07T12:24:23;9.75;;;8.95;;
15096;SDS011;7649;52.084;7.478;2023-05-07T12:26:52;10.35;;;9.25;;
15096;SDS011;7649;52.084;7.478;2023-05-07T12:29:21;10.00;;;9.05;;
15096;SDS011;7649;52.084;7.478;2023-05-07T12:31:50;10.05;;;9.15;;
15096;SDS011;7649;52.084;7.478;2023-05-07T12:34:18;9.80;;;8.82;;
15096;SDS011;7649;52.084;7.478;2023-05-07T12:36:47;9.70;;;8.80;;
15096;SDS011;7649;52.084;7.478;2023-05-07T12:39:16;8.63;;;7.93;;
15096;SDS011;7649;52.084;7.478;2023-05-07T12:41:55;9.80;;;8.90;;
15096;SDS011;7649;52.084;7.478;2023-05-07T12:44:25;9.23;;;8.40;;
15096;SDS011;7649;52.084;7.478;2023-05-07T12:46:56;8.85;;;8.05;;
15096;SDS011;7649;52.084;7.478;2023-05-07T12:49:26;8.10;;;7.40;;
15096;SDS011;7649;52.084;7.478;2023-05-07T12:51:54;7.57;;;6.95;;
15096;SDS011;7649;52.084;7.478;2023-05-07T12:54:29;7.45;;;6.82;;
15096;SDS011;7649;52.084;7.478;2023-05-07T12:57:02;7.82;;;7.20;;
15096;SDS011;7649;52.084;7.478;2023-05-07T12:59:31;8.55;;;7.88;;
15096;SDS011;7649;52.084;7.478;2023-05-07T13:01:59;8.13;;;7.45;;
15096;SDS011;7649;52.084;7.478;2023-05-07T13:04:27;8.13;;;7.32;;
15096;SDS011;7649;52.084;7.478;2023-05-07T13:06:56;7.80;;;7.15;;
15096;SDS011;7649;52.084;7.478;2023-05-07T13:09:24;6.25;;;5.75;;
15096;SDS011;7649;52.084;7.478;2023-05-07T13:11:52;6.38;;;5.88;;
15096;SDS011;7649;52.084;7.478;2023-05-07T13:14:22;6.80;;;6.10;;
15096;SDS011;7649;52.084;7.478;2023-05-07T13:16:50;7.03;;;6.47;;
15096;SDS011;7649;52.084;7.478;2023-05-07T13:19:18;6.75;;;6.13;;
15096;SDS011;7649;52.084;7.478;2023-05-07T13:21:46;6.60;;;6.07;;
15096;SDS011;7649;52.084;7.478;2023-05-07T13:24:15;6.50;;;5.90;;
15096;SDS011;7649;52.084;7.478;2023-05-07T13:26:44;6.70;;;5.72;;
15096;SDS011;7649;52.084;7.478;2023-05-07T13:29:12;6.78;;;6.25;;
15096;SDS011;7649;52.084;7.478;2023-05-07T13:31:41;8.10;;;6.35;;
15096;SDS011;7649;52.084;7.478;2023-05-07T13:34:10;7.22;;;6.60;;
15096;SDS011;7649;52.084;7.478;2023-05-07T13:36:38;7.28;;;6.55;;
15096;SDS011;7649;52.084;7.478;2023-05-07T13:39:08;6.50;;;5.97;;
15096;SDS011;7649;52.084;7.478;2023-05-07T13:41:36;7.15;;;6.55;;
15096;SDS011;7649;52.084;7.478;2023-05-07T13:44:04;7.28;;;6.68;;
15096;SDS011;7649;52.084;7.478;2023-05-07T13:46:32;6.47;;;5.97;;
15096;SDS011;7649;52.084;7.478;2023-05-07T13:49:02;6.55;;;5.95;;
15096;SDS011;7649;52.084;7.478;2023-05-07T13:51:31;6.68;;;6.03;;
15096;SDS011;7649;52.084;7.478;2023-05-07T13:53:59;7.03;;;6.43;;
15096;SDS011;7649;52.084;7.478;2023-05-07T13:56:27;6.55;;;5.93;;
15096;SDS011;7649;52.084;7.478;2023-05-07T13:58:57;6.50;;;5.90;;
15096;SDS011;7649;52.084;7.478;2023-05-07T14:01:26;6.20;;;5.60;;
15096;SDS011;7649;52.084;7.478;2023-05-07T14:03:55;5.95;;;5.45;;
15096;SDS011;7649;52.084;7.478;2023-05-07T14:06:25;8.32;;;6.18;;
15096;SDS011;7649;52.084;7.478;2023-05-07T14:08:53;7.22;;;6.53;;
15096;SDS011;7649;52.084;7.478;2023-05-07T14:11:24;6.38;;;5.88;;
15096;SDS011;7649;52.084;7.478;2023-05-07T14:13:52;6.57;;;6.07;;
15096;SDS011;7649;52.084;7.478;2023-05-07T14:16:20;5.93;;;5.45;;
15096;SDS011;7649;52.084;7.478;2023-05-07T14:18:49;7.07;;;6.57;;
15096;SDS011;7649;52.084;7.478;2023-05-07T14:21:17;6.68;;;6.07;;
15096;SDS011;7649;52.084;7.478;2023-05-07T14:23:46;7.15;;;6.55;;
15096;SDS011;7649;52.084;7.478;2023-05-07T14:26:15;7.07;;;6.53;;
15096;SDS011;7649;52.084;7.478;2023-05-07T14:28:43;8.05;;;7.25;;
15096;SDS011;7649;52.084;7.478;2023-05-07T14:31:12;7.80;;;7.20;;
15096;SDS011;7649;52.084;7.478;2023-05-07T14:33:41;11.57;;;6.97;;
15096;SDS011;7649;52.084;7.478;2023-05-07T14:36:09;7.10;;;6.45;;
15096;SDS011;7649;52.084;7.478;2023-05-07T14:38:37;7.25;;;6.65;;
15096;SDS011;7649;52.084;7.478;2023-05-07T14:41:07;7.45;;;6.75;;
15096;SDS011;7649;52.084;7.478;2023-05-07T14:43:35;6.85;;;6.32;;
15096;SDS011;7649;52.084;7.478;2023-05-07T14:46:03;6.72;;;6.13;;
15096;SDS011;7649;52.084;7.478;2023-05-07T14:48:32;6.13;;;5.63;;
15096;SDS011;7649;52.084;7.478;2023-05-07T14:51:00;6.18;;;5.68;;
15096;SDS011;7649;52.084;7.478;2023-05-07T14:53:28;8.10;;;5.93;;
15096;SDS011;7649;52.084;7.478;2023-05-07T14:55:56;6.93;;;6.15;;
15096;SDS011;7649;52.084;7.478;2023-05-07T14:58:26;7.05;;;6.45;;